sensor_id;sensor_type;location;lat;lon;timestamp;P1;durP1;ratioP1;P2;durP2;ratioP2
37049;SDS011;22958;51.232;6.826;2023-05-27T00:02:19;35.53;;;6.70;;
37049;SDS011;22958;51.232;6.826;2023-05-27T00:04:45;38.43;;;6.77;;
37049;SDS011;22958;51.232;6.826;2023-05-27T00:07:10;34.17;;;8.10;;
37049;SDS011;22958;51.232;6.826;2023-05-27T00:09:36;37.93;;;9.53;;
37049;SDS011;22958;51.232;6.826;2023-05-27T00:12:01;23.87;;;6.50;;
37049;SDS011;22958;51.232;6.826;2023-05-27T00:14:27;31.50;;;7.17;;
37049;SDS011;22958;51.232;6.826;2023-05-27T00:16:53;26.33;;;7.37;;
37049;SDS011;22958;51.232;6.826;2023-05-27T00:21:45;34.08;;;7.20;;
37049;SDS011;22958;51.232;6.826;2023-05-27T00:24:10;35.10;;;7.37;;
37049;SDS011;22958;51.232;6.826;2023-05-27T00:26:36;33.53;;;8.23;;
37049;SDS011;22958;51.232;6.826;2023-05-27T00:29:03;30.05;;;7.20;;
37049;SDS011;22958;51.232;6.826;2023-05-27T00:31:29;40.37;;;7.87;;
37049;SDS011;22958;51.232;6.826;2023-05-27T00:33:55;36.03;;;7.20;;
37049;SDS011;22958;51.232;6.826;2023-05-27T00:36:20;35.50;;;7.50;;
37049;SDS011;22958;51.232;6.826;2023-05-27T00:38:46;37.53;;;7.33;;
37049;SDS011;22958;51.232;6.826;2023-05-27T00:41:11;28.50;;;6.30;;
37049;SDS011;22958;51.232;6.826;2023-05-27T00:43:37;39.67;;;7.43;;
37049;SDS011;22958;51.232;6.826;2023-05-27T00:46:04;30.73;;;7.40;;
37049;SDS011;22958;51.232;6.826;2023-05-27T00:48:29;28.87;;;6.73;;
37049;SDS011;22958;51.232;6.826;2023-05-27T00:50:55;42.70;;;8.03;;
37049;SDS011;22958;51.232;6.826;2023-05-27T00:53:21;35.63;;;6.93;;
37049;SDS011;22958;51.232;6.826;2023-05-27T00:55:48;29.63;;;6.72;;
37049;SDS011;22958;51.232;6.826;2023-05-27T00:58:17;31.38;;;7.80;;
37049;SDS011;22958;51.232;6.826;2023-05-27T01:00:50;22.13;;;6.13;;
37049;SDS011;22958;51.232;6.826;2023-05-27T01:03:16;30.35;;;7.00;;
37049;SDS011;22958;51.232;6.826;2023-05-27T01:05:41;30.70;;;6.97;;
37049;SDS011;22958;51.232;6.826;2023-05-27T01:11:13;36.80;;;7.35;;
37049;SDS011;22958;51.232;6.826;2023-05-27T01:13:46;38.22;;;6.20;;
37049;SDS011;22958;51.232;6.826;2023-05-27T01:16:15;32.17;;;7.13;;
37049;SDS011;22958;51.232;6.826;2023-05-27T01:18:42;36.67;;;6.80;;
37049;SDS011;22958;51.232;6.826;2023-05-27T01:21:10;32.17;;;6.30;;
37049;SDS011;22958;51.232;6.826;2023-05-27T01:23:40;34.85;;;6.28;;
37049;SDS011;22958;51.232;6.826;2023-05-27T01:26:06;36.42;;;7.47;;
37049;SDS011;22958;51.232;6.826;2023-05-27T01:28:32;34.87;;;7.23;;
37049;SDS011;22958;51.232;6.826;2023-05-27T01:31:01;33.70;;;7.67;;
37049;SDS011;22958;51.232;6.826;2023-05-27T01:33:36;47.83;;;7.47;;
37049;SDS011;22958;51.232;6.826;2023-05-27T01:36:12;26.25;;;6.25;;
37049;SDS011;22958;51.232;6.826;2023-05-27T01:38:40;33.13;;;6.78;;
37049;SDS011;22958;51.232;6.826;2023-05-27T01:41:09;29.77;;;6.50;;
37049;SDS011;22958;51.232;6.826;2023-05-27T01:43:36;31.15;;;6.85;;
37049;SDS011;22958;51.232;6.826;2023-05-27T01:46:02;27.50;;;6.88;;
37049;SDS011;22958;51.232;6.826;2023-05-27T01:48:28;33.03;;;7.40;;
37049;SDS011;22958;51.232;6.826;2023-05-27T01:50:54;38.20;;;8.23;;
37049;SDS011;22958;51.232;6.826;2023-05-27T01:53:19;29.57;;;6.63;;
37049;SDS011;22958;51.232;6.826;2023-05-27T01:55:45;27.83;;;7.53;;
37049;SDS011;22958;51.232;6.826;2023-05-27T01:58:11;37.30;;;6.83;;
37049;SDS011;22958;51.232;6.826;2023-05-27T02:00:36;39.97;;;6.93;;
37049;SDS011;22958;51.232;6.826;2023-05-27T02:03:02;42.93;;;7.97;;
37049;SDS011;22958;51.232;6.826;2023-05-27T02:05:27;38.20;;;7.03;;
37049;SDS011;22958;51.232;6.826;2023-05-27T02:07:53;37.13;;;7.10;;
37049;SDS011;22958;51.232;6.826;2023-05-27T02:10:18;44.97;;;8.33;;
37049;SDS011;22958;51.232;6.826;2023-05-27T02:12:44;36.53;;;7.83;;
37049;SDS011;22958;51.232;6.826;2023-05-27T02:15:09;44.13;;;7.43;;
37049;SDS011;22958;51.232;6.826;2023-05-27T02:17:35;35.33;;;8.10;;
37049;SDS011;22958;51.232;6.826;2023-05-27T02:20:02;35.83;;;7.38;;
37049;SDS011;22958;51.232;6.826;2023-05-27T02:22:28;31.23;;;8.25;;
37049;SDS011;22958;51.232;6.826;2023-05-27T02:24:54;32.07;;;7.07;;
37049;SDS011;22958;51.232;6.826;2023-05-27T02:27:19;45.13;;;8.27;;
37049;SDS011;22958;51.232;6.826;2023-05-27T02:29:45;40.77;;;8.53;;
37049;SDS011;22958;51.232;6.826;2023-05-27T02:32:11;41.53;;;8.43;;
37049;SDS011;22958;51.232;6.826;2023-05-27T02:34:36;32.80;;;7.30;;
37049;SDS011;22958;51.232;6.826;2023-05-27T02:37:03;35.50;;;6.77;;
37049;SDS011;22958;51.232;6.826;2023-05-27T02:39:29;32.30;;;7.65;;
37049;SDS011;22958;51.232;6.826;2023-05-27T02:41:55;45.67;;;7.70;;
37049;SDS011;22958;51.232;6.826;2023-05-27T02:44:20;42.43;;;8.40;;
37049;SDS011;22958;51.232;6.826;2023-05-27T02:46:46;33.97;;;7.30;;
37049;SDS011;22958;51.232;6.826;2023-05-27T02:49:11;27.17;;;7.13;;
37049;SDS011;22958;51.232;6.826;2023-05-27T02:51:37;25.43;;;7.70;;
37049;SDS011;22958;51.232;6.826;2023-05-27T02:54:02;48.53;;;8.13;;
37049;SDS011;22958;51.232;6.826;2023-05-27T02:56:28;37.23;;;8.67;;
37049;SDS011;22958;51.232;6.826;2023-05-27T02:58:53;39.43;;;7.53;;
37049;SDS011;22958;51.232;6.826;2023-05-27T03:01:19;33.47;;;8.63;;
37049;SDS011;22958;51.232;6.826;2023-05-27T03:03:44;38.90;;;7.77;;
37049;SDS011;22958;51.232;6.826;2023-05-27T03:06:11;33.53;;;7.97;;
37049;SDS011;22958;51.232;6.826;2023-05-27T03:08:36;34.00;;;7.83;;
37049;SDS011;22958;51.232;6.826;2023-05-27T03:11:02;44.53;;;8.43;;
37049;SDS011;22958;51.232;6.826;2023-05-27T03:13:27;33.90;;;7.40;;
37049;SDS011;22958;51.232;6.826;2023-05-27T03:15:53;45.27;;;8.67;;
37049;SDS011;22958;51.232;6.826;2023-05-27T03:18:19;44.72;;;8.82;;
37049;SDS011;22958;51.232;6.826;2023-05-27T03:20:45;41.20;;;9.10;;
37049;SDS011;22958;51.232;6.826;2023-05-27T03:23:12;41.75;;;8.45;;
37049;SDS011;22958;51.232;6.826;2023-05-27T03:25:37;31.90;;;8.97;;
37049;SDS011;22958;51.232;6.826;2023-05-27T03:28:03;44.80;;;9.00;;
37049;SDS011;22958;51.232;6.826;2023-05-27T03:30:28;33.93;;;8.20;;
37049;SDS011;22958;51.232;6.826;2023-05-27T03:32:55;34.40;;;7.53;;
37049;SDS011;22958;51.232;6.826;2023-05-27T03:35:20;45.73;;;8.03;;
37049;SDS011;22958;51.232;6.826;2023-05-27T03:37:46;47.00;;;10.10;;
37049;SDS011;22958;51.232;6.826;2023-05-27T03:40:11;30.60;;;8.70;;
37049;SDS011;22958;51.232;6.826;2023-05-27T03:42:37;38.90;;;8.67;;
37049;SDS011;22958;51.232;6.826;2023-05-27T03:45:03;42.83;;;8.67;;
37049;SDS011;22958;51.232;6.826;2023-05-27T03:47:29;45.70;;;8.50;;
37049;SDS011;22958;51.232;6.826;2023-05-27T03:49:54;38.87;;;8.17;;
37049;SDS011;22958;51.232;6.826;2023-05-27T03:52:20;38.97;;;9.30;;
37049;SDS011;22958;51.232;6.826;2023-05-27T03:54:45;36.97;;;9.27;;
37049;SDS011;22958;51.232;6.826;2023-05-27T03:57:11;38.23;;;8.73;;
37049;SDS011;22958;51.232;6.826;2023-05-27T03:59:36;37.70;;;8.80;;
37049;SDS011;22958;51.232;6.826;2023-05-27T04:02:02;40.43;;;8.97;;
37049;SDS011;22958;51.232;6.826;2023-05-27T04:04:28;33.95;;;8.35;;
37049;SDS011;22958;51.232;6.826;2023-05-27T04:06:54;51.73;;;8.97;;
37049;SDS011;22958;51.232;6.826;2023-05-27T04:09:20;32.90;;;8.90;;
37049;SDS011;22958;51.232;6.826;2023-05-27T04:11:46;41.23;;;9.73;;
37049;SDS011;22958;51.232;6.826;2023-05-27T04:14:11;44.50;;;10.07;;
37049;SDS011;22958;51.232;6.826;2023-05-27T04:16:37;42.50;;;10.10;;
37049;SDS011;22958;51.232;6.826;2023-05-27T04:19:06;30.67;;;7.70;;
37049;SDS011;22958;51.232;6.826;2023-05-27T04:21:32;43.43;;;8.93;;
37049;SDS011;22958;51.232;6.826;2023-05-27T04:23:57;44.73;;;9.10;;
37049;SDS011;22958;51.232;6.826;2023-05-27T04:26:23;37.50;;;8.13;;
37049;SDS011;22958;51.232;6.826;2023-05-27T04:28:49;38.90;;;10.00;;
37049;SDS011;22958;51.232;6.826;2023-05-27T04:31:14;36.33;;;8.60;;
37049;SDS011;22958;51.232;6.826;2023-05-27T04:33:43;40.27;;;9.77;;
37049;SDS011;22958;51.232;6.826;2023-05-27T04:36:09;42.28;;;9.55;;
37049;SDS011;22958;51.232;6.826;2023-05-27T04:38:35;36.15;;;8.80;;
37049;SDS011;22958;51.232;6.826;2023-05-27T04:41:01;30.97;;;8.40;;
37049;SDS011;22958;51.232;6.826;2023-05-27T04:43:27;31.17;;;9.17;;
37049;SDS011;22958;51.232;6.826;2023-05-27T04:45:54;44.50;;;8.98;;
37049;SDS011;22958;51.232;6.826;2023-05-27T04:48:21;40.22;;;10.25;;
37049;SDS011;22958;51.232;6.826;2023-05-27T04:50:49;39.72;;;9.30;;
37049;SDS011;22958;51.232;6.826;2023-05-27T04:53:18;36.75;;;8.23;;
37049;SDS011;22958;51.232;6.826;2023-05-27T04:55:44;39.00;;;9.60;;
37049;SDS011;22958;51.232;6.826;2023-05-27T04:58:10;35.90;;;9.27;;
37049;SDS011;22958;51.232;6.826;2023-05-27T05:00:35;45.00;;;10.13;;
37049;SDS011;22958;51.232;6.826;2023-05-27T05:03:03;39.13;;;9.65;;
37049;SDS011;22958;51.232;6.826;2023-05-27T05:05:32;40.47;;;8.90;;
37049;SDS011;22958;51.232;6.826;2023-05-27T05:07:58;35.47;;;9.20;;
37049;SDS011;22958;51.232;6.826;2023-05-27T05:10:23;49.33;;;9.07;;
37049;SDS011;22958;51.232;6.826;2023-05-27T05:12:49;29.73;;;8.57;;
37049;SDS011;22958;51.232;6.826;2023-05-27T05:15:15;34.80;;;9.27;;
37049;SDS011;22958;51.232;6.826;2023-05-27T05:17:40;44.47;;;8.63;;
37049;SDS011;22958;51.232;6.826;2023-05-27T05:20:06;42.80;;;8.83;;
37049;SDS011;22958;51.232;6.826;2023-05-27T05:22:33;44.25;;;8.57;;
37049;SDS011;22958;51.232;6.826;2023-05-27T05:24:59;33.37;;;8.30;;
37049;SDS011;22958;51.232;6.826;2023-05-27T05:27:25;36.03;;;8.70;;
37049;SDS011;22958;51.232;6.826;2023-05-27T05:29:50;33.30;;;8.37;;
37049;SDS011;22958;51.232;6.826;2023-05-27T05:32:16;33.77;;;8.47;;
37049;SDS011;22958;51.232;6.826;2023-05-27T05:34:41;35.00;;;7.83;;
37049;SDS011;22958;51.232;6.826;2023-05-27T05:37:08;32.83;;;8.27;;
37049;SDS011;22958;51.232;6.826;2023-05-27T05:39:35;32.80;;;7.43;;
37049;SDS011;22958;51.232;6.826;2023-05-27T05:42:01;35.97;;;9.30;;
37049;SDS011;22958;51.232;6.826;2023-05-27T05:44:27;32.73;;;8.47;;
37049;SDS011;22958;51.232;6.826;2023-05-27T05:46:52;29.73;;;7.77;;
37049;SDS011;22958;51.232;6.826;2023-05-27T05:49:18;34.30;;;8.77;;
37049;SDS011;22958;51.232;6.826;2023-05-27T05:51:44;31.85;;;7.78;;
37049;SDS011;22958;51.232;6.826;2023-05-27T05:54:10;42.10;;;8.83;;
37049;SDS011;22958;51.232;6.826;2023-05-27T05:56:35;41.87;;;9.00;;
37049;SDS011;22958;51.232;6.826;2023-05-27T05:59:01;32.53;;;8.27;;
37049;SDS011;22958;51.232;6.826;2023-05-27T06:01:26;34.57;;;8.33;;
37049;SDS011;22958;51.232;6.826;2023-05-27T06:03:52;32.07;;;8.03;;
37049;SDS011;22958;51.232;6.826;2023-05-27T06:06:18;28.13;;;7.85;;
37049;SDS011;22958;51.232;6.826;2023-05-27T06:08:44;34.17;;;7.67;;
37049;SDS011;22958;51.232;6.826;2023-05-27T06:11:10;44.83;;;9.17;;
37049;SDS011;22958;51.232;6.826;2023-05-27T06:13:36;29.57;;;7.93;;
37049;SDS011;22958;51.232;6.826;2023-05-27T06:16:01;32.77;;;7.47;;
37049;SDS011;22958;51.232;6.826;2023-05-27T06:18:27;32.27;;;7.37;;
37049;SDS011;22958;51.232;6.826;2023-05-27T06:20:52;35.67;;;8.37;;
37049;SDS011;22958;51.232;6.826;2023-05-27T06:23:18;35.50;;;8.93;;
37049;SDS011;22958;51.232;6.826;2023-05-27T06:25:43;41.13;;;8.43;;
37049;SDS011;22958;51.232;6.826;2023-05-27T06:28:09;36.97;;;8.43;;
37049;SDS011;22958;51.232;6.826;2023-05-27T06:30:35;21.80;;;7.93;;
37049;SDS011;22958;51.232;6.826;2023-05-27T06:33:01;27.25;;;7.22;;
37049;SDS011;22958;51.232;6.826;2023-05-27T06:35:27;29.73;;;6.97;;
37049;SDS011;22958;51.232;6.826;2023-05-27T06:37:52;32.23;;;7.50;;
37049;SDS011;22958;51.232;6.826;2023-05-27T06:40:18;32.20;;;8.40;;
37049;SDS011;22958;51.232;6.826;2023-05-27T06:42:43;23.43;;;7.47;;
37049;SDS011;22958;51.232;6.826;2023-05-27T06:45:09;32.88;;;7.47;;
37049;SDS011;22958;51.232;6.826;2023-05-27T06:47:35;29.60;;;7.83;;
37049;SDS011;22958;51.232;6.826;2023-05-27T06:50:01;36.83;;;8.63;;
37049;SDS011;22958;51.232;6.826;2023-05-27T06:52:26;27.07;;;6.70;;
37049;SDS011;22958;51.232;6.826;2023-05-27T06:54:52;24.23;;;7.53;;
37049;SDS011;22958;51.232;6.826;2023-05-27T06:57:17;33.10;;;8.57;;
37049;SDS011;22958;51.232;6.826;2023-05-27T06:59:43;29.00;;;7.17;;
37049;SDS011;22958;51.232;6.826;2023-05-27T07:02:08;32.33;;;7.20;;
37049;SDS011;22958;51.232;6.826;2023-05-27T07:04:34;27.13;;;6.23;;
37049;SDS011;22958;51.232;6.826;2023-05-27T07:07:00;26.33;;;6.83;;
37049;SDS011;22958;51.232;6.826;2023-05-27T07:09:25;34.23;;;6.97;;
37049;SDS011;22958;51.232;6.826;2023-05-27T07:11:51;24.23;;;6.60;;
37049;SDS011;22958;51.232;6.826;2023-05-27T07:14:16;30.57;;;6.83;;
37049;SDS011;22958;51.232;6.826;2023-05-27T07:16:42;30.73;;;5.73;;
37049;SDS011;22958;51.232;6.826;2023-05-27T07:19:07;29.30;;;6.40;;
37049;SDS011;22958;51.232;6.826;2023-05-27T07:21:33;30.90;;;7.47;;
37049;SDS011;22958;51.232;6.826;2023-05-27T07:24:00;31.23;;;7.37;;
37049;SDS011;22958;51.232;6.826;2023-05-27T07:26:28;34.42;;;6.57;;
37049;SDS011;22958;51.232;6.826;2023-05-27T07:28:56;29.25;;;6.28;;
37049;SDS011;22958;51.232;6.826;2023-05-27T07:31:23;24.05;;;6.53;;
37049;SDS011;22958;51.232;6.826;2023-05-27T07:33:49;24.67;;;7.07;;
37049;SDS011;22958;51.232;6.826;2023-05-27T07:36:14;25.53;;;5.97;;
37049;SDS011;22958;51.232;6.826;2023-05-27T07:38:40;26.37;;;6.17;;
37049;SDS011;22958;51.232;6.826;2023-05-27T07:41:05;29.93;;;7.50;;
37049;SDS011;22958;51.232;6.826;2023-05-27T07:43:31;21.77;;;5.87;;
37049;SDS011;22958;51.232;6.826;2023-05-27T07:45:56;27.00;;;6.37;;
37049;SDS011;22958;51.232;6.826;2023-05-27T07:48:22;29.60;;;6.33;;
37049;SDS011;22958;51.232;6.826;2023-05-27T07:50:47;20.23;;;5.87;;
37049;SDS011;22958;51.232;6.826;2023-05-27T07:53:13;34.47;;;6.90;;
37049;SDS011;22958;51.232;6.826;2023-05-27T07:55:38;26.40;;;6.37;;
37049;SDS011;22958;51.232;6.826;2023-05-27T07:58:04;27.27;;;6.67;;
37049;SDS011;22958;51.232;6.826;2023-05-27T08:00:29;28.17;;;7.43;;
37049;SDS011;22958;51.232;6.826;2023-05-27T08:02:55;34.72;;;6.57;;
37049;SDS011;22958;51.232;6.826;2023-05-27T08:05:21;31.27;;;7.13;;
37049;SDS011;22958;51.232;6.826;2023-05-27T08:07:46;27.80;;;6.93;;
37049;SDS011;22958;51.232;6.826;2023-05-27T08:10:12;21.57;;;6.60;;
37049;SDS011;22958;51.232;6.826;2023-05-27T08:12:37;21.53;;;6.03;;
37049;SDS011;22958;51.232;6.826;2023-05-27T08:15:03;25.47;;;6.57;;
37049;SDS011;22958;51.232;6.826;2023-05-27T08:17:29;31.30;;;7.03;;
37049;SDS011;22958;51.232;6.826;2023-05-27T08:19:54;25.10;;;6.27;;
37049;SDS011;22958;51.232;6.826;2023-05-27T08:22:20;32.20;;;7.17;;
37049;SDS011;22958;51.232;6.826;2023-05-27T08:24:45;28.20;;;6.77;;
37049;SDS011;22958;51.232;6.826;2023-05-27T08:27:14;28.00;;;6.73;;
37049;SDS011;22958;51.232;6.826;2023-05-27T08:29:41;30.05;;;8.38;;
37049;SDS011;22958;51.232;6.826;2023-05-27T08:32:07;24.58;;;6.63;;
37049;SDS011;22958;51.232;6.826;2023-05-27T08:34:32;21.73;;;6.77;;
37049;SDS011;22958;51.232;6.826;2023-05-27T08:36:58;29.43;;;5.80;;
37049;SDS011;22958;51.232;6.826;2023-05-27T08:39:25;25.60;;;7.03;;
37049;SDS011;22958;51.232;6.826;2023-05-27T08:41:51;32.03;;;7.25;;
37049;SDS011;22958;51.232;6.826;2023-05-27T08:44:18;24.27;;;6.45;;
37049;SDS011;22958;51.232;6.826;2023-05-27T08:46:47;25.05;;;6.38;;
37049;SDS011;22958;51.232;6.826;2023-05-27T08:49:13;23.08;;;6.00;;
37049;SDS011;22958;51.232;6.826;2023-05-27T08:51:39;27.03;;;6.33;;
37049;SDS011;22958;51.232;6.826;2023-05-27T08:54:05;23.45;;;6.53;;
37049;SDS011;22958;51.232;6.826;2023-05-27T08:56:33;23.83;;;5.90;;
37049;SDS011;22958;51.232;6.826;2023-05-27T08:59:01;25.52;;;5.68;;
37049;SDS011;22958;51.232;6.826;2023-05-27T09:01:27;27.43;;;7.03;;
37049;SDS011;22958;51.232;6.826;2023-05-27T09:03:54;22.83;;;5.85;;
37049;SDS011;22958;51.232;6.826;2023-05-27T09:06:20;19.45;;;5.32;;
37049;SDS011;22958;51.232;6.826;2023-05-27T09:08:46;24.87;;;6.17;;
37049;SDS011;22958;51.232;6.826;2023-05-27T09:11:24;23.20;;;6.50;;
37049;SDS011;22958;51.232;6.826;2023-05-27T09:13:53;19.25;;;6.55;;
37049;SDS011;22958;51.232;6.826;2023-05-27T09:16:20;26.60;;;5.97;;
37049;SDS011;22958;51.232;6.826;2023-05-27T09:18:47;21.95;;;6.38;;
37049;SDS011;22958;51.232;6.826;2023-05-27T09:21:13;23.88;;;7.20;;
37049;SDS011;22958;51.232;6.826;2023-05-27T09:23:38;25.70;;;6.30;;
37049;SDS011;22958;51.232;6.826;2023-05-27T09:26:11;21.77;;;6.05;;
37049;SDS011;22958;51.232;6.826;2023-05-27T09:28:37;33.40;;;7.45;;
37049;SDS011;22958;51.232;6.826;2023-05-27T09:31:05;27.30;;;7.07;;
37049;SDS011;22958;51.232;6.826;2023-05-27T09:33:32;23.20;;;6.40;;
37049;SDS011;22958;51.232;6.826;2023-05-27T09:36:02;39.35;;;7.30;;
37049;SDS011;22958;51.232;6.826;2023-05-27T09:38:29;27.38;;;5.93;;
37049;SDS011;22958;51.232;6.826;2023-05-27T09:40:58;25.65;;;6.95;;
37049;SDS011;22958;51.232;6.826;2023-05-27T09:45:51;24.58;;;6.40;;
37049;SDS011;22958;51.232;6.826;2023-05-27T09:48:20;28.75;;;6.05;;
37049;SDS011;22958;51.232;6.826;2023-05-27T09:50:48;27.52;;;6.28;;
37049;SDS011;22958;51.232;6.826;2023-05-27T09:53:15;30.25;;;6.45;;
37049;SDS011;22958;51.232;6.826;2023-05-27T09:55:42;28.65;;;6.63;;
37049;SDS011;22958;51.232;6.826;2023-05-27T09:58:08;23.77;;;6.40;;
37049;SDS011;22958;51.232;6.826;2023-05-27T10:00:35;23.30;;;6.40;;
37049;SDS011;22958;51.232;6.826;2023-05-27T10:05:28;19.85;;;5.13;;
37049;SDS011;22958;51.232;6.826;2023-05-27T10:10:20;18.67;;;5.07;;
37049;SDS011;22958;51.232;6.826;2023-05-27T10:12:47;26.23;;;5.97;;
37049;SDS011;22958;51.232;6.826;2023-05-27T10:15:21;25.50;;;5.95;;
37049;SDS011;22958;51.232;6.826;2023-05-27T10:17:59;24.38;;;5.95;;
37049;SDS011;22958;51.232;6.826;2023-05-27T10:22:55;20.17;;;5.50;;
37049;SDS011;22958;51.232;6.826;2023-05-27T10:25:22;19.25;;;6.35;;
37049;SDS011;22958;51.232;6.826;2023-05-27T10:28:00;30.42;;;6.18;;
37049;SDS011;22958;51.232;6.826;2023-05-27T10:30:25;24.50;;;5.77;;
37049;SDS011;22958;51.232;6.826;2023-05-27T10:32:52;22.25;;;5.35;;
37049;SDS011;22958;51.232;6.826;2023-05-27T10:35:19;26.17;;;5.85;;
37049;SDS011;22958;51.232;6.826;2023-05-27T10:37:46;30.20;;;6.80;;
37049;SDS011;22958;51.232;6.826;2023-05-27T10:40:12;16.13;;;5.50;;
37049;SDS011;22958;51.232;6.826;2023-05-27T10:42:57;20.63;;;5.25;;
37049;SDS011;22958;51.232;6.826;2023-05-27T10:45:30;20.42;;;6.32;;
37049;SDS011;22958;51.232;6.826;2023-05-27T10:47:57;22.58;;;5.80;;
37049;SDS011;22958;51.232;6.826;2023-05-27T10:50:23;24.93;;;6.17;;
37049;SDS011;22958;51.232;6.826;2023-05-27T10:52:56;17.92;;;5.43;;
37049;SDS011;22958;51.232;6.826;2023-05-27T10:55:23;30.67;;;6.53;;
37049;SDS011;22958;51.232;6.826;2023-05-27T10:57:50;27.85;;;5.47;;
37049;SDS011;22958;51.232;6.826;2023-05-27T11:00:16;25.75;;;6.00;;
37049;SDS011;22958;51.232;6.826;2023-05-27T11:02:44;24.95;;;6.07;;
37049;SDS011;22958;51.232;6.826;2023-05-27T11:05:09;23.50;;;5.43;;
37049;SDS011;22958;51.232;6.826;2023-05-27T11:07:36;19.02;;;5.32;;
37049;SDS011;22958;51.232;6.826;2023-05-27T11:10:03;29.38;;;5.80;;
37049;SDS011;22958;51.232;6.826;2023-05-27T11:12:31;22.75;;;5.88;;
37049;SDS011;22958;51.232;6.826;2023-05-27T11:14:57;20.27;;;5.23;;
37049;SDS011;22958;51.232;6.826;2023-05-27T11:17:22;16.37;;;4.93;;
37049;SDS011;22958;51.232;6.826;2023-05-27T11:19:48;19.95;;;6.22;;
37049;SDS011;22958;51.232;6.826;2023-05-27T11:22:15;21.40;;;5.00;;
37049;SDS011;22958;51.232;6.826;2023-05-27T11:24:42;17.25;;;4.95;;
37049;SDS011;22958;51.232;6.826;2023-05-27T11:27:08;20.10;;;5.78;;
37049;SDS011;22958;51.232;6.826;2023-05-27T11:29:38;24.00;;;5.88;;
37049;SDS011;22958;51.232;6.826;2023-05-27T11:32:05;17.15;;;6.25;;
37049;SDS011;22958;51.232;6.826;2023-05-27T11:37:01;19.20;;;5.18;;
37049;SDS011;22958;51.232;6.826;2023-05-27T11:39:30;22.13;;;5.28;;
37049;SDS011;22958;51.232;6.826;2023-05-27T11:41:56;18.50;;;5.95;;
37049;SDS011;22958;51.232;6.826;2023-05-27T11:46:49;19.02;;;5.18;;
37049;SDS011;22958;51.232;6.826;2023-05-27T11:49:16;20.05;;;6.30;;
37049;SDS011;22958;51.232;6.826;2023-05-27T11:51:43;21.40;;;5.07;;
37049;SDS011;22958;51.232;6.826;2023-05-27T11:54:20;20.25;;;4.65;;
37049;SDS011;22958;51.232;6.826;2023-05-27T11:56:49;17.98;;;5.32;;
37049;SDS011;22958;51.232;6.826;2023-05-27T11:59:15;20.65;;;5.47;;
37049;SDS011;22958;51.232;6.826;2023-05-27T12:01:41;21.40;;;5.13;;
37049;SDS011;22958;51.232;6.826;2023-05-27T12:04:07;16.10;;;4.68;;
37049;SDS011;22958;51.232;6.826;2023-05-27T12:06:32;21.80;;;5.40;;
37049;SDS011;22958;51.232;6.826;2023-05-27T12:11:24;26.02;;;5.63;;
37049;SDS011;22958;51.232;6.826;2023-05-27T12:16:16;16.87;;;5.03;;
37049;SDS011;22958;51.232;6.826;2023-05-27T12:21:07;24.67;;;5.70;;
37049;SDS011;22958;51.232;6.826;2023-05-27T12:23:33;22.00;;;6.22;;
37049;SDS011;22958;51.232;6.826;2023-05-27T12:28:25;18.05;;;5.22;;
37049;SDS011;22958;51.232;6.826;2023-05-27T12:30:51;15.80;;;5.05;;
37049;SDS011;22958;51.232;6.826;2023-05-27T12:33:16;14.32;;;4.63;;
37049;SDS011;22958;51.232;6.826;2023-05-27T12:35:42;18.17;;;5.35;;
37049;SDS011;22958;51.232;6.826;2023-05-27T12:38:07;18.75;;;4.97;;
37049;SDS011;22958;51.232;6.826;2023-05-27T12:40:33;21.42;;;5.07;;
37049;SDS011;22958;51.232;6.826;2023-05-27T12:42:58;18.10;;;5.75;;
37049;SDS011;22958;51.232;6.826;2023-05-27T12:45:24;22.02;;;5.80;;
37049;SDS011;22958;51.232;6.826;2023-05-27T12:47:51;16.67;;;5.00;;
37049;SDS011;22958;51.232;6.826;2023-05-27T12:50:17;23.42;;;5.25;;
37049;SDS011;22958;51.232;6.826;2023-05-27T12:52:43;18.40;;;5.50;;
37049;SDS011;22958;51.232;6.826;2023-05-27T12:55:13;13.35;;;4.60;;
37049;SDS011;22958;51.232;6.826;2023-05-27T12:57:39;16.33;;;5.50;;
37049;SDS011;22958;51.232;6.826;2023-05-27T13:00:05;21.02;;;5.85;;
37049;SDS011;22958;51.232;6.826;2023-05-27T13:02:32;22.75;;;6.25;;
37049;SDS011;22958;51.232;6.826;2023-05-27T13:04:57;18.48;;;5.32;;
37049;SDS011;22958;51.232;6.826;2023-05-27T13:07:25;18.30;;;5.40;;
37049;SDS011;22958;51.232;6.826;2023-05-27T13:09:50;19.95;;;5.63;;
37049;SDS011;22958;51.232;6.826;2023-05-27T13:12:16;16.05;;;5.28;;
37049;SDS011;22958;51.232;6.826;2023-05-27T13:14:42;22.65;;;5.32;;
37049;SDS011;22958;51.232;6.826;2023-05-27T13:17:07;19.52;;;5.40;;
37049;SDS011;22958;51.232;6.826;2023-05-27T13:19:34;17.58;;;5.47;;
37049;SDS011;22958;51.232;6.826;2023-05-27T13:21:59;16.67;;;5.18;;
37049;SDS011;22958;51.232;6.826;2023-05-27T13:24:25;20.42;;;5.57;;
37049;SDS011;22958;51.232;6.826;2023-05-27T13:26:50;16.65;;;5.35;;
37049;SDS011;22958;51.232;6.826;2023-05-27T13:29:16;17.55;;;4.85;;
37049;SDS011;22958;51.232;6.826;2023-05-27T13:31:41;21.50;;;6.72;;
37049;SDS011;22958;51.232;6.826;2023-05-27T13:34:07;17.80;;;5.55;;
37049;SDS011;22958;51.232;6.826;2023-05-27T13:36:32;14.35;;;4.72;;
37049;SDS011;22958;51.232;6.826;2023-05-27T13:38:58;16.00;;;5.72;;
37049;SDS011;22958;51.232;6.826;2023-05-27T13:41:23;19.52;;;4.88;;
37049;SDS011;22958;51.232;6.826;2023-05-27T13:43:49;18.45;;;5.70;;
37049;SDS011;22958;51.232;6.826;2023-05-27T13:46:14;14.20;;;5.43;;
37049;SDS011;22958;51.232;6.826;2023-05-27T13:48:40;18.90;;;5.55;;
37049;SDS011;22958;51.232;6.826;2023-05-27T13:53:31;15.68;;;5.43;;
37049;SDS011;22958;51.232;6.826;2023-05-27T13:55:57;16.30;;;5.68;;
37049;SDS011;22958;51.232;6.826;2023-05-27T13:58:23;15.57;;;5.30;;
37049;SDS011;22958;51.232;6.826;2023-05-27T14:00:48;17.80;;;5.30;;
37049;SDS011;22958;51.232;6.826;2023-05-27T14:03:14;16.95;;;5.85;;
37049;SDS011;22958;51.232;6.826;2023-05-27T14:05:39;17.88;;;5.70;;
37049;SDS011;22958;51.232;6.826;2023-05-27T14:08:05;19.42;;;5.32;;
37049;SDS011;22958;51.232;6.826;2023-05-27T14:10:33;14.70;;;5.78;;
37049;SDS011;22958;51.232;6.826;2023-05-27T14:12:59;13.05;;;4.82;;
37049;SDS011;22958;51.232;6.826;2023-05-27T14:15:24;19.20;;;5.35;;
37049;SDS011;22958;51.232;6.826;2023-05-27T14:17:54;15.68;;;5.47;;
37049;SDS011;22958;51.232;6.826;2023-05-27T14:20:20;14.80;;;5.80;;
37049;SDS011;22958;51.232;6.826;2023-05-27T14:22:46;17.25;;;5.50;;
37049;SDS011;22958;51.232;6.826;2023-05-27T14:25:12;18.42;;;6.10;;
37049;SDS011;22958;51.232;6.826;2023-05-27T14:27:38;17.27;;;6.22;;
37049;SDS011;22958;51.232;6.826;2023-05-27T14:30:05;16.35;;;4.88;;
37049;SDS011;22958;51.232;6.826;2023-05-27T14:32:31;16.15;;;5.43;;
37049;SDS011;22958;51.232;6.826;2023-05-27T14:34:56;17.23;;;5.65;;
37049;SDS011;22958;51.232;6.826;2023-05-27T14:37:22;18.25;;;5.35;;
37049;SDS011;22958;51.232;6.826;2023-05-27T14:39:48;19.65;;;5.82;;
37049;SDS011;22958;51.232;6.826;2023-05-27T14:42:15;16.55;;;5.93;;
37049;SDS011;22958;51.232;6.826;2023-05-27T14:44:40;14.65;;;5.13;;
37049;SDS011;22958;51.232;6.826;2023-05-27T14:47:06;21.50;;;5.88;;
37049;SDS011;22958;51.232;6.826;2023-05-27T14:49:31;16.27;;;5.63;;
37049;SDS011;22958;51.232;6.826;2023-05-27T14:51:57;14.25;;;5.45;;
37049;SDS011;22958;51.232;6.826;2023-05-27T14:54:22;15.23;;;5.22;;
37049;SDS011;22958;51.232;6.826;2023-05-27T14:56:48;21.15;;;5.60;;
37049;SDS011;22958;51.232;6.826;2023-05-27T14:59:13;20.30;;;5.85;;
37049;SDS011;22958;51.232;6.826;2023-05-27T15:04:04;17.20;;;5.55;;